Time;durP1;ratioP1;P1;durP2;ratioP2;P2;SDS_P1;SDS_P2;PMS_P1;PMS_P2;Temp;Humidity;BMP_temperature;BMP_pressure;BME280_temperature;BME280_humidity;BME280_pressure;Samples;Min_cycle;Max_cycle;Signal;HPM_P1;HPM_P2
2021/06/18 00:00:22;;;;;;;1.40;1.30;;;22.80;64.00;;;;;;5113704;28;20023;-76
2021/06/18 00:02:48;;;;;;;1.58;1.48;;;22.70;64.00;;;;;;5113957;28;20028;-76
2021/06/18 00:05:14;;;;;;;1.40;1.30;;;22.70;64.10;;;;;;5114188;28;20076;-76
2021/06/18 00:07:41;;;;;;;1.30;1.20;;;22.60;64.20;;;;;;5114002;28;20479;-75
2021/06/18 00:10:09;;;;;;;1.50;1.23;;;22.60;64.20;;;;;;5114261;28;20019;-75
2021/06/18 00:12:35;;;;;;;1.85;1.55;;;22.50;64.30;;;;;;5114038;28;20058;-76
2021/06/18 00:15:00;;;;;;;1.75;1.25;;;22.50;64.40;;;;;;5114119;28;20019;-75
2021/06/18 00:17:27;;;;;;;1.83;1.73;;;22.50;64.40;;;;;;5113574;28;20380;-76
2021/06/18 00:19:52;;;;;;;1.27;1.23;;;22.50;64.50;;;;;;5114063;28;20149;-75
2021/06/18 00:22:18;;;;;;;2.55;1.55;;;22.40;64.50;;;;;;5113465;28;20122;-75
2021/06/18 00:24:44;;;;;;;1.45;1.35;;;22.40;64.60;;;;;;5113896;28;20020;-76
2021/06/18 00:27:09;;;;;;;1.67;1.50;;;22.40;64.70;;;;;;5113750;28;20519;-75
2021/06/18 00:29:35;;;;;;;2.13;1.80;;;22.30;64.70;;;;;;5113837;28;20099;-75
2021/06/18 00:32:00;;;;;;;1.83;1.65;;;22.30;64.80;;;;;;5113077;28;20024;-74
2021/06/18 00:34:26;;;;;;;1.70;1.60;;;22.30;65.00;;;;;;5113834;28;20061;-75
2021/06/18 00:36:51;;;;;;;2.47;1.95;;;22.20;65.00;;;;;;5113661;28;20051;-76
2021/06/18 00:39:17;;;;;;;1.75;1.60;;;22.20;65.10;;;;;;5095487;28;20024;-75
2021/06/18 00:41:42;;;;;;;1.77;1.60;;;22.20;65.20;;;;;;5113607;28;20032;-75
2021/06/18 00:44:08;;;;;;;2.55;2.35;;;22.20;65.20;;;;;;5113600;28;20023;-74
2021/06/18 00:46:34;;;;;;;2.03;1.80;;;22.10;65.20;;;;;;5113216;28;20038;-77
2021/06/18 00:48:59;;;;;;;1.73;1.63;;;22.10;65.30;;;;;;5113765;28;20069;-76
2021/06/18 00:51:25;;;;;;;2.13;1.80;;;22.10;65.30;;;;;;5113525;28;20020;-76
2021/06/18 00:53:52;;;;;;;2.45;2.10;;;22.10;65.40;;;;;;5113518;28;20023;-75
2021/06/18 00:56:18;;;;;;;1.90;1.70;;;22.10;65.40;;;;;;5113477;28;20024;-74
2021/06/18 00:58:43;;;;;;;1.80;1.70;;;22.10;65.40;;;;;;5113495;28;20157;-75
2021/06/18 01:01:09;;;;;;;3.22;2.03;;;22.10;66.20;;;;;;5113011;28;20384;-75
2021/06/18 01:03:34;;;;;;;2.83;1.90;;;22.00;65.50;;;;;;5113551;28;20480;-76
2021/06/18 01:06:00;;;;;;;2.42;1.75;;;22.00;65.60;;;;;;5113405;28;20527;-75
2021/06/18 01:08:31;;;;;;;2.40;2.05;;;21.90;65.60;;;;;;5113295;28;20030;-75
2021/06/18 01:11:15;;;;;;;2.28;2.08;;;21.90;65.80;;;;;;5116198;28;20152;-75
2021/06/18 01:14:19;;;;;;;2.15;1.95;;;21.90;65.90;;;;;;5099207;28;20048;-75
2021/06/18 01:16:59;;;;;;;2.15;1.92;;;21.80;65.80;;;;;;5101146;28;20071;-76
2021/06/18 01:19:28;;;;;;;2.60;2.17;;;21.80;66.00;;;;;;5117434;28;20478;-76
2021/06/18 01:21:56;;;;;;;2.47;2.13;;;21.80;66.10;;;;;;5117111;28;20392;-74
2021/06/18 01:24:54;;;;;;;2.40;2.20;;;21.70;66.10;;;;;;5117340;28;20016;-76
2021/06/18 01:27:40;;;;;;;2.45;2.00;;;21.70;66.20;;;;;;5117605;28;20019;-76
2021/06/18 01:30:13;;;;;;;2.40;2.10;;;21.70;66.20;;;;;;5116724;28;20447;-75
2021/06/18 01:32:46;;;;;;;2.83;2.00;;;21.70;66.30;;;;;;5117262;28;20029;-76
2021/06/18 01:35:18;;;;;;;3.10;2.50;;;21.60;66.30;;;;;;5116994;28;20095;-76
2021/06/18 01:37:48;;;;;;;3.40;2.33;;;21.60;66.30;;;;;;5116980;28;20103;-75
2021/06/18 01:40:17;;;;;;;2.47;2.25;;;21.60;66.40;;;;;;5117002;28;20030;-75
2021/06/18 01:42:45;;;;;;;3.13;2.38;;;21.60;66.40;;;;;;5116872;28;20071;-74
2021/06/18 01:45:14;;;;;;;2.67;2.22;;;21.60;66.50;;;;;;5116408;28;20068;-74
2021/06/18 01:47:42;;;;;;;;;;;21.60;66.60;;;;;;5098925;28;20388;-74
2021/06/18 01:50:10;;;;;;;2.38;1.90;;;21.50;66.40;;;;;;5116763;28;19958;-75
2021/06/18 01:52:38;;;;;;;2.13;1.90;;;21.50;66.60;;;;;;5116584;28;20497;-75
2021/06/18 01:55:05;;;;;;;2.33;2.10;;;21.50;66.60;;;;;;5116699;28;20111;-76
2021/06/18 01:57:34;;;;;;;1.98;1.85;;;21.50;66.70;;;;;;5116635;28;20380;-76
2021/06/18 02:00:01;;;;;;;2.40;2.03;;;21.50;66.70;;;;;;5116120;28;20057;-75
2021/06/18 02:02:28;;;;;;;1.90;1.80;;;21.50;66.70;;;;;;5116653;28;20031;-76
2021/06/18 02:04:55;;;;;;;2.63;2.42;;;21.50;66.80;;;;;;5116690;28;20027;-74
2021/06/18 02:07:23;;;;;;;1.88;1.70;;;21.50;66.80;;;;;;5116559;28;20489;-76
2021/06/18 02:09:50;;;;;;;2.73;2.23;;;21.50;66.80;;;;;;5116657;28;20486;-76
2021/06/18 02:12:16;;;;;;;1.90;1.80;;;21.50;66.80;;;;;;5116237;28;20364;-75
2021/06/18 02:14:43;;;;;;;2.75;1.90;;;21.60;66.90;;;;;;5115918;28;20047;-77
2021/06/18 02:17:10;;;;;;;2.55;2.00;;;21.60;66.90;;;;;;5116245;28;20174;-74
2021/06/18 02:19:38;;;;;;;3.22;2.50;;;21.50;66.80;;;;;;5116227;28;20045;-75
2021/06/18 02:22:08;;;;;;;2.70;2.17;;;21.50;66.90;;;;;;5114829;28;20054;-74
2021/06/18 02:24:35;;;;;;;2.60;2.08;;;21.60;66.90;;;;;;5115973;28;20106;-75
2021/06/18 02:27:02;;;;;;;3.40;2.33;;;21.60;66.90;;;;;;5116095;28;20032;-75
2021/06/18 02:29:28;;;;;;;2.08;1.80;;;21.60;66.80;;;;;;5115488;28;20026;-74
2021/06/18 02:31:56;;;;;;;2.00;1.85;;;21.60;66.80;;;;;;5115860;28;20028;-74
2021/06/18 02:34:21;;;;;;;2.80;2.20;;;21.70;66.90;;;;;;5115852;28;20487;-76
2021/06/18 02:36:47;;;;;;;2.85;2.40;;;21.70;67.60;;;;;;5115948;28;20039;-75
2021/06/18 02:39:13;;;;;;;2.45;1.90;;;21.60;66.90;;;;;;5115837;28;20020;-76
2021/06/18 02:41:39;;;;;;;3.35;2.45;;;21.60;67.00;;;;;;5115706;28;20519;-75
2021/06/18 02:44:05;;;;;;;2.63;2.42;;;21.60;67.10;;;;;;5096931;28;20015;-74
2021/06/18 02:46:54;;;;;;;2.50;2.20;;;21.70;67.80;;;;;;5115624;28;20035;-75
2021/06/18 02:49:29;;;;;;;1.80;1.70;;;21.70;67.20;;;;;;5115649;28;20024;-75
2021/06/18 02:52:05;;;;;;;2.67;2.13;;;21.70;67.20;;;;;;5115697;28;20016;-75
2021/06/18 02:54:59;;;;;;;2.70;2.03;;;21.70;67.30;;;;;;5115513;28;20082;-75
2021/06/18 02:57:30;;;;;;;3.13;2.40;;;21.70;67.20;;;;;;5105266;28;20059;-75
2021/06/18 03:00:10;;;;;;;2.35;2.00;;;21.60;67.30;;;;;;5097303;28;20027;-76
2021/06/18 03:02:43;;;;;;;2.42;2.13;;;21.70;67.40;;;;;;5096944;28;20189;-75
2021/06/18 03:05:10;;;;;;;2.13;1.73;;;21.60;67.40;;;;;;5115405;28;20376;-75
2021/06/18 03:07:37;;;;;;;2.35;1.80;;;21.60;67.60;;;;;;5115540;28;20058;-76
2021/06/18 03:10:07;;;;;;;2.10;1.90;;;21.60;67.60;;;;;;5115237;28;20500;-76
2021/06/18 03:12:35;;;;;;;2.25;2.05;;;21.60;67.60;;;;;;5114620;28;20455;-74
2021/06/18 03:15:05;;;;;;;2.57;2.17;;;21.50;67.70;;;;;;5115203;28;20024;-76
2021/06/18 03:17:32;;;;;;;2.47;2.05;;;21.50;67.70;;;;;;5115239;28;20389;-76
2021/06/18 03:20:01;;;;;;;2.80;2.40;;;21.50;67.80;;;;;;5115161;28;20110;-76
2021/06/18 03:22:30;;;;;;;2.47;2.28;;;21.50;67.90;;;;;;5114718;28;20048;-76
2021/06/18 03:24:57;;;;;;;2.63;2.42;;;21.40;68.00;;;;;;5114875;28;20031;-74
2021/06/18 03:27:24;;;;;;;2.72;2.50;;;21.30;68.70;;;;;;5114524;28;20023;-74
2021/06/18 03:29:52;;;;;;;3.15;2.65;;;21.40;68.20;;;;;;5114882;28;20499;-76
2021/06/18 03:32:18;;;;;;;2.72;2.30;;;21.30;68.20;;;;;;5096362;28;20099;-76
2021/06/18 03:34:45;;;;;;;3.38;2.78;;;21.40;68.30;;;;;;5096656;28;20019;-75
2021/06/18 03:37:13;;;;;;;3.42;2.85;;;21.40;68.30;;;;;;5114668;28;20027;-74
2021/06/18 03:39:40;;;;;;;3.97;2.97;;;21.40;68.40;;;;;;5114710;28;20440;-76
2021/06/18 03:42:06;;;;;;;3.22;2.33;;;21.40;68.30;;;;;;5114042;28;20042;-76
2021/06/18 03:44:32;;;;;;;3.58;2.83;;;21.50;68.30;;;;;;5114620;28;20102;-76
2021/06/18 03:46:58;;;;;;;3.03;2.20;;;21.60;68.20;;;;;;5114502;28;20070;-76
2021/06/18 03:49:27;;;;;;;4.53;2.92;;;21.60;68.10;;;;;;5114535;28;20032;-76
2021/06/18 03:51:54;;;;;;;3.92;2.80;;;21.70;68.10;;;;;;5114508;28;20023;-76
2021/06/18 03:54:22;;;;;;;3.55;2.35;;;21.80;68.00;;;;;;5113965;28;20144;-75
2021/06/18 03:56:48;;;;;;;3.30;2.70;;;21.80;68.00;;;;;;5096142;28;20375;-74
2021/06/18 03:59:19;;;;;;;4.05;2.60;;;21.80;67.90;;;;;;5095932;28;20464;-75
2021/06/18 04:01:48;;;;;;;3.13;2.67;;;21.90;67.90;;;;;;5096060;28;20442;-75
2021/06/18 04:04:14;;;;;;;3.78;2.90;;;22.00;67.80;;;;;;5114220;28;20019;-76
2021/06/18 04:06:40;;;;;;;2.88;2.55;;;22.00;67.80;;;;;;5114039;28;20095;-74
2021/06/18 04:09:06;;;;;;;2.65;2.40;;;22.10;67.90;;;;;;5113533;28;20020;-75
2021/06/18 04:11:31;;;;;;;3.88;3.00;;;22.10;67.80;;;;;;5114902;28;20032;-75
2021/06/18 04:13:57;;;;;;;4.30;3.58;;;22.20;67.70;;;;;;5114029;28;20034;-77
2021/06/18 04:16:23;;;;;;;5.18;4.32;;;22.20;67.90;;;;;;5114369;28;20024;-77
2021/06/18 04:18:49;;;;;;;4.28;3.88;;;22.10;68.30;;;;;;5095632;28;20106;-75
2021/06/18 04:21:20;;;;;;;8.43;7.55;;;21.90;68.80;;;;;;5113835;28;20548;-79
2021/06/18 04:23:46;;;;;;;11.07;8.30;;;21.80;69.60;;;;;;5113551;28;20027;-76
2021/06/18 04:26:12;;;;;;;17.73;15.82;;;21.70;70.20;;;;;;5114049;28;20030;-78
2021/06/18 04:28:39;;;;;;;13.32;12.07;;;21.10;72.50;;;;;;5113907;28;20027;-76
2021/06/18 04:31:05;;;;;;;10.23;9.10;;;20.70;73.50;;;;;;5095567;28;20011;-77
2021/06/18 04:33:32;;;;;;;9.45;7.70;;;20.60;73.90;;;;;;5113678;28;20031;-76
2021/06/18 04:35:58;;;;;;;7.72;6.93;;;20.60;73.80;;;;;;5113909;28;20389;-76
2021/06/18 04:38:23;;;;;;;6.82;4.88;;;20.60;73.50;;;;;;5113155;28;20098;-77
2021/06/18 04:40:50;;;;;;;5.65;4.78;;;20.60;73.30;;;;;;5113712;28;20102;-75
2021/06/18 04:43:16;;;;;;;5.38;4.32;;;20.70;73.20;;;;;;5113754;28;20488;-78
2021/06/18 04:45:41;;;;;;;5.30;4.80;;;20.70;73.00;;;;;;5113068;28;20038;-79
2021/06/18 04:48:07;;;;;;;4.57;3.70;;;20.70;73.10;;;;;;5113753;28;20023;-77
2021/06/18 04:50:33;;;;;;;5.38;4.50;;;20.70;73.30;;;;;;5113632;28;20027;-77
2021/06/18 04:53:00;;;;;;;4.97;4.30;;;20.70;73.50;;;;;;5112890;28;20043;-77
2021/06/18 04:55:26;;;;;;;4.78;3.63;;;20.70;73.60;;;;;;5095255;28;20424;-77
2021/06/18 04:57:52;;;;;;;3.53;3.00;;;20.60;73.60;;;;;;5113502;28;20027;-76
2021/06/18 05:00:18;;;;;;;9.43;8.35;;;20.60;73.80;;;;;;5095297;28;20020;-83
2021/06/18 05:02:44;;;;;;;8.23;7.35;;;20.30;74.70;;;;;;5113794;28;20028;-82
2021/06/18 05:05:11;;;;;;;7.60;6.05;;;19.90;75.90;;;;;;5113941;28;20556;-83
2021/06/18 05:07:36;;;;;;;6.53;5.25;;;19.70;76.80;;;;;;5113067;28;20031;-84
2021/06/18 05:10:02;;;;;;;5.03;4.25;;;19.60;77.50;;;;;;5113561;28;20529;-80
2021/06/18 05:12:27;;;;;;;5.10;4.18;;;19.60;78.40;;;;;;5113448;28;20110;-81
2021/06/18 05:14:53;;;;;;;4.75;3.30;;;19.60;79.20;;;;;;5113168;28;20018;-81
2021/06/18 05:17:19;;;;;;;3.58;2.75;;;19.60;79.90;;;;;;5113355;28;20361;-79
2021/06/18 05:19:44;;;;;;;4.30;3.00;;;19.70;80.70;;;;;;5113355;28;20027;-80
2021/06/18 05:22:10;;;;;;;2.67;2.30;;;19.80;81.40;;;;;;5112430;28;20547;-79
2021/06/18 05:24:35;;;;;;;3.42;2.97;;;19.80;82.30;;;;;;5113201;28;20015;-79
2021/06/18 05:27:01;;;;;;;3.45;3.08;;;19.90;83.10;;;;;;5094894;28;20026;-80
2021/06/18 05:29:28;;;;;;;3.67;2.85;;;19.90;83.80;;;;;;5113947;28;20016;-86
2021/06/18 05:31:54;;;;;;;4.60;3.40;;;20.00;84.50;;;;;;5113615;28;20106;-89
2021/06/18 05:34:19;;;;;;;4.30;3.10;;;20.00;85.20;;;;;;5113741;28;20117;-87
2021/06/18 05:36:45;;;;;;;4.13;3.22;;;20.10;85.90;;;;;;5112872;28;20020;-83
2021/06/18 05:39:12;;;;;;;4.70;2.95;;;20.10;86.30;;;;;;5113400;28;20016;-84
2021/06/18 05:41:38;;;;;;;2.97;2.35;;;20.20;86.80;;;;;;5094978;28;20059;-83
2021/06/18 05:44:03;;;;;;;3.58;2.67;;;20.30;87.30;;;;;;5113181;28;20062;-81
2021/06/18 05:46:29;;;;;;;4.55;3.60;;;20.40;87.50;;;;;;5112991;28;20073;-84
2021/06/18 05:48:55;;;;;;;4.28;3.83;;;20.50;87.90;;;;;;5113254;28;20069;-83
2021/06/18 05:51:20;;;;;;;5.15;4.40;;;20.50;88.20;;;;;;5112281;28;20046;-81
2021/06/18 05:53:46;;;;;;;5.63;4.18;;;20.50;88.80;;;;;;5112970;28;20047;-82
2021/06/18 05:56:11;;;;;;;4.97;4.18;;;20.40;89.30;;;;;;5112964;28;20020;-80
2021/06/18 05:58:37;;;;;;;5.40;4.32;;;20.30;89.90;;;;;;5116554;28;20035;-86
2021/06/18 06:01:02;;;;;;;7.43;5.95;;;20.40;90.10;;;;;;5116979;28;20215;-84
2021/06/18 06:03:28;;;;;;;6.63;5.60;;;20.40;90.20;;;;;;5116722;28;20035;-83
2021/06/18 06:05:53;;;;;;;6.78;5.57;;;20.40;90.40;;;;;;5115907;28;20102;-79
2021/06/18 06:08:20;;;;;;;7.35;6.22;;;20.40;90.50;;;;;;5098227;28;20019;-80
2021/06/18 06:10:47;;;;;;;6.65;5.88;;;20.40;90.60;;;;;;5116344;28;20018;-80
2021/06/18 06:13:13;;;;;;;6.13;5.45;;;20.30;90.70;;;;;;5097851;28;20027;-81
2021/06/18 06:15:38;;;;;;;6.55;5.38;;;20.40;90.80;;;;;;5098038;28;20373;-80
2021/06/18 06:18:04;;;;;;;5.82;4.72;;;20.50;90.90;;;;;;5116330;28;20076;-80
2021/06/18 06:20:29;;;;;;;6.30;4.80;;;20.60;90.90;;;;;;5115649;28;20491;-81
2021/06/18 06:22:55;;;;;;;5.80;4.28;;;20.70;90.90;;;;;;5115983;28;20097;-81
2021/06/18 06:25:20;;;;;;;5.18;4.45;;;20.80;90.90;;;;;;5116110;28;20020;-81
2021/06/18 06:27:46;;;;;;;5.35;4.25;;;20.90;90.90;;;;;;5116030;28;20031;-81
2021/06/18 06:30:12;;;;;;;5.82;4.93;;;21.10;90.90;;;;;;5116014;28;20075;-82
2021/06/18 06:32:37;;;;;;;4.00;3.40;;;21.20;90.80;;;;;;5115876;28;20498;-80
2021/06/18 06:35:03;;;;;;;4.53;3.42;;;21.40;90.70;;;;;;5115263;28;20042;-81
2021/06/18 06:37:29;;;;;;;3.80;3.33;;;21.60;90.70;;;;;;5115923;28;20061;-81
2021/06/18 06:39:54;;;;;;;5.72;4.70;;;21.70;90.60;;;;;;5115804;28;20031;-80
2021/06/18 06:42:20;;;;;;;5.68;4.60;;;21.70;90.60;;;;;;5115616;28;20039;-82
2021/06/18 06:44:46;;;;;;;5.38;4.30;;;21.70;90.60;;;;;;5115762;28;20035;-76
2021/06/18 06:47:11;;;;;;;5.72;4.68;;;21.80;90.70;;;;;;5115963;28;20100;-80
2021/06/18 06:49:37;;;;;;;7.47;5.82;;;22.00;90.60;;;;;;5097164;28;20020;-82
2021/06/18 06:52:03;;;;;;;6.28;4.93;;;22.00;90.80;;;;;;5115714;28;20435;-80
2021/06/18 06:54:28;;;;;;;5.53;4.88;;;22.10;90.40;;;;;;5115717;28;20032;-79
2021/06/18 06:56:55;;;;;;;5.13;4.40;;;22.20;90.40;;;;;;5115270;28;20095;-78
2021/06/18 06:59:21;;;;;;;6.28;4.15;;;22.30;90.40;;;;;;5097103;28;20073;-77
2021/06/18 07:01:47;;;;;;;4.90;3.88;;;22.40;90.20;;;;;;5115424;28;20027;-77
2021/06/18 07:04:12;;;;;;;4.35;3.95;;;22.50;90.30;;;;;;5114771;28;20023;-78
2021/06/18 07:06:39;;;;;;;4.43;3.65;;;22.50;90.20;;;;;;5115167;28;20029;-77
2021/06/18 07:09:08;;;;;;;4.68;4.07;;;22.50;90.20;;;;;;5114880;28;20016;-77
2021/06/18 07:11:33;;;;;;;4.00;3.30;;;22.60;90.30;;;;;;5115127;28;20020;-76
2021/06/18 07:13:59;;;;;;;3.83;2.97;;;22.60;90.10;;;;;;5115192;28;20034;-77
2021/06/18 07:16:25;;;;;;;3.90;3.50;;;22.70;90.00;;;;;;5114951;28;20083;-76
2021/06/18 07:18:51;;;;;;;2.88;2.58;;;22.80;90.00;;;;;;5114475;28;20384;-75
2021/06/18 07:21:17;;;;;;;3.47;2.70;;;22.90;89.70;;;;;;5096400;28;20515;-76
2021/06/18 07:23:43;;;;;;;3.78;3.20;;;23.00;89.40;;;;;;5114987;28;20032;-76
2021/06/18 07:26:09;;;;;;;3.38;3.08;;;23.10;89.30;;;;;;5114861;28;20424;-76
2021/06/18 07:28:35;;;;;;;3.42;3.05;;;23.20;89.80;;;;;;5114909;28;20498;-75
2021/06/18 07:31:00;;;;;;;3.15;2.85;;;23.30;89.00;;;;;;5114870;28;20491;-75
2021/06/18 07:33:26;;;;;;;3.55;3.15;;;23.40;88.80;;;;;;5114150;28;20038;-74
2021/06/18 07:35:51;;;;;;;3.90;3.50;;;23.40;88.70;;;;;;5114807;28;20098;-74
2021/06/18 07:38:17;;;;;;;4.45;3.45;;;23.40;88.60;;;;;;5096290;28;20035;-75
2021/06/18 07:40:43;;;;;;;3.40;2.72;;;23.40;88.70;;;;;;5114758;28;20119;-75
2021/06/18 07:43:09;;;;;;;3.65;3.35;;;23.40;88.60;;;;;;5114587;28;20039;-75
2021/06/18 07:45:34;;;;;;;4.45;3.55;;;23.40;88.60;;;;;;5114619;28;20088;-75
2021/06/18 07:48:01;;;;;;;3.92;3.03;;;23.30;88.50;;;;;;5114026;28;20024;-76
2021/06/18 07:50:27;;;;;;;3.55;3.00;;;23.30;88.60;;;;;;5114748;28;20476;-74
2021/06/18 07:52:53;;;;;;;4.85;3.90;;;23.20;88.60;;;;;;5114188;28;20062;-76
2021/06/18 07:55:21;;;;;;;3.75;3.17;;;23.10;88.60;;;;;;5114445;28;20016;-76
2021/06/18 07:57:47;;;;;;;3.67;3.30;;;23.10;88.90;;;;;;5114463;28;20072;-76
2021/06/18 08:00:13;;;;;;;3.10;2.80;;;23.00;88.90;;;;;;5096105;28;20417;-77
2021/06/18 08:02:39;;;;;;;3.30;2.90;;;23.00;88.80;;;;;;5113661;28;20031;-75
2021/06/18 08:05:06;;;;;;;3.28;2.85;;;23.10;88.60;;;;;;5114161;28;20072;-74
2021/06/18 08:07:31;;;;;;;3.92;3.15;;;23.00;88.50;;;;;;5114486;28;20030;-75
2021/06/18 08:09:57;;;;;;;4.55;3.50;;;23.00;88.60;;;;;;5114226;28;20028;-74
2021/06/18 08:12:23;;;;;;;4.75;3.80;;;22.90;88.50;;;;;;5113866;28;20035;-74
2021/06/18 08:14:49;;;;;;;4.05;3.42;;;22.80;88.60;;;;;;5114202;28;20475;-75
2021/06/18 08:17:15;;;;;;;4.28;3.53;;;22.80;88.60;;;;;;5113399;28;20088;-75
2021/06/18 08:19:43;;;;;;;4.25;3.72;;;22.70;88.50;;;;;;5113230;28;20027;-76
2021/06/18 08:22:09;;;;;;;3.80;3.28;;;22.70;88.50;;;;;;5113569;28;20491;-73
2021/06/18 08:24:35;;;;;;;4.45;3.40;;;22.60;88.50;;;;;;5113871;28;20034;-73
2021/06/18 08:27:02;;;;;;;4.55;3.45;;;22.60;88.60;;;;;;5095585;28;20490;-74
2021/06/18 08:29:27;;;;;;;5.03;3.80;;;22.50;88.50;;;;;;5113802;28;20024;-73
2021/06/18 08:31:53;;;;;;;4.22;3.72;;;22.50;88.60;;;;;;5113323;28;20102;-73
2021/06/18 08:34:18;;;;;;;4.60;3.63;;;22.50;88.60;;;;;;5095260;28;20468;-74
2021/06/18 08:36:44;;;;;;;4.15;3.42;;;22.50;88.50;;;;;;5095435;28;20103;-74
2021/06/18 08:39:10;;;;;;;3.55;3.25;;;22.40;88.30;;;;;;5113542;28;20068;-74
2021/06/18 08:41:35;;;;;;;4.68;3.20;;;22.50;88.30;;;;;;5113458;28;20042;-74
2021/06/18 08:44:01;;;;;;;4.55;3.53;;;22.50;88.20;;;;;;5113561;28;20020;-76
2021/06/18 08:46:27;;;;;;;4.53;3.53;;;22.40;88.20;;;;;;5094658;28;20123;-74
2021/06/18 08:48:53;;;;;;;4.80;3.53;;;22.50;88.20;;;;;;5113344;28;20102;-74
2021/06/18 08:51:19;;;;;;;4.93;3.35;;;22.70;88.10;;;;;;5113499;28;20456;-73
2021/06/18 08:53:46;;;;;;;4.30;3.90;;;22.80;87.80;;;;;;5113577;28;20019;-74
2021/06/18 08:56:12;;;;;;;4.20;3.30;;;23.00;87.60;;;;;;5113598;28;20107;-75
2021/06/18 08:58:38;;;;;;;4.05;3.60;;;23.10;87.20;;;;;;5113329;28;20103;-73
2021/06/18 09:01:04;;;;;;;3.97;3.47;;;23.30;87.10;;;;;;5112739;28;20100;-73
2021/06/18 09:03:43;;;;;;;5.82;4.47;;;23.50;86.80;;;;;;5113408;28;20030;-73
2021/06/18 09:06:22;;;;;;;4.28;3.50;;;23.70;86.60;;;;;;5113617;28;20016;-73
2021/06/18 09:09:10;;;;;;;4.07;2.95;;;23.80;86.20;;;;;;5113348;28;20093;-73
2021/06/18 09:11:37;;;;;;;4.07;3.22;;;23.90;86.20;;;;;;5113234;28;20103;-74
2021/06/18 09:14:20;;;;;;;3.65;3.20;;;24.00;86.10;;;;;;5112832;28;20034;-74
2021/06/18 09:17:11;;;;;;;3.85;2.88;;;24.10;85.90;;;;;;5113258;28;20035;-74
2021/06/18 09:19:38;;;;;;;3.35;2.60;;;24.40;85.70;;;;;;5113251;28;20088;-73
2021/06/18 09:22:13;;;;;;;3.95;2.92;;;24.60;85.50;;;;;;5112863;28;20043;-76
2021/06/18 09:24:42;;;;;;;5.30;3.63;;;24.80;85.00;;;;;;5113126;28;20026;-77
2021/06/18 09:27:09;;;;;;;4.20;3.45;;;25.00;84.70;;;;;;5113332;28;20015;-76
2021/06/18 09:29:35;;;;;;;3.83;3.15;;;25.10;84.70;;;;;;5094320;28;20058;-76
2021/06/18 09:32:04;;;;;;;4.53;3.30;;;25.20;84.50;;;;;;5097597;28;20061;-77
2021/06/18 09:34:37;;;;;;;4.72;3.65;;;25.30;84.50;;;;;;5117006;28;20020;-76
2021/06/18 09:37:20;;;;;;;3.80;3.20;;;25.40;84.50;;;;;;5116958;28;20022;-75
2021/06/18 09:40:01;;;;;;;4.20;3.50;;;25.50;84.50;;;;;;5098746;28;20016;-76
2021/06/18 09:42:27;;;;;;;3.78;3.20;;;25.50;84.60;;;;;;5097958;28;20050;-77
2021/06/18 09:45:02;;;;;;;3.35;2.95;;;25.40;84.60;;;;;;5116957;28;20020;-75
2021/06/18 09:47:28;;;;;;;4.80;3.72;;;25.50;84.80;;;;;;5116776;28;20027;-75
2021/06/18 09:49:53;;;;;;;4.57;3.30;;;25.50;84.70;;;;;;5098548;28;20019;-76
2021/06/18 09:52:21;;;;;;;4.45;3.33;;;25.50;84.60;;;;;;5116627;28;20475;-77
2021/06/18 09:54:53;;;;;;;4.35;3.47;;;25.50;84.60;;;;;;5116598;28;20019;-76
2021/06/18 09:57:24;;;;;;;3.83;3.42;;;25.60;84.50;;;;;;5116262;28;20103;-76
2021/06/18 10:00:03;;;;;;;4.72;3.20;;;25.70;84.50;;;;;;5116500;28;20016;-76
2021/06/18 10:02:49;;;;;;;3.90;3.40;;;25.70;84.30;;;;;;5116527;28;20035;-76
2021/06/18 10:05:20;;;;;;;3.78;3.30;;;25.90;84.20;;;;;;5116590;28;20024;-75
2021/06/18 10:07:50;;;;;;;4.70;3.80;;;26.00;84.00;;;;;;5116448;28;20012;-75
2021/06/18 10:10:26;;;;;;;3.97;3.50;;;26.00;83.90;;;;;;5116438;28;20026;-75
2021/06/18 10:12:54;;;;;;;4.55;3.60;;;26.00;83.90;;;;;;5116081;28;20020;-78
2021/06/18 10:15:22;;;;;;;4.70;3.72;;;26.00;83.90;;;;;;5116409;28;20034;-75
2021/06/18 10:17:50;;;;;;;3.17;2.75;;;26.10;83.90;;;;;;5116221;28;20028;-75
2021/06/18 10:20:28;;;;;;;3.55;3.00;;;26.20;83.80;;;;;;5116049;28;20031;-75
2021/06/18 10:23:24;;;;;;;3.33;2.95;;;26.30;83.60;;;;;;5115836;28;20039;-76
2021/06/18 10:25:58;;;;;;;4.32;3.25;;;26.50;83.40;;;;;;5095102;28;20092;-75
2021/06/18 10:28:32;;;;;;;3.75;3.00;;;26.60;83.10;;;;;;5097799;28;20051;-76
2021/06/18 10:31:00;;;;;;;3.47;2.90;;;26.70;83.30;;;;;;5116172;28;20094;-74
2021/06/18 10:33:25;;;;;;;3.13;2.70;;;26.70;83.40;;;;;;5115994;28;20559;-74
2021/06/18 10:36:08;;;;;;;2.95;2.60;;;26.70;83.20;;;;;;5115888;28;20098;-76
2021/06/18 10:38:37;;;;;;;3.70;3.00;;;26.90;83.20;;;;;;5115906;28;20019;-75
2021/06/18 10:41:12;;;;;;;3.15;2.83;;;27.00;83.10;;;;;;5097008;28;20073;-76
2021/06/18 10:43:41;;;;;;;4.22;3.67;;;27.00;83.00;;;;;;5114921;28;20119;-76
2021/06/18 10:46:19;;;;;;;3.67;3.10;;;27.10;83.00;;;;;;5115700;28;20020;-74
2021/06/18 10:48:47;;;;;;;3.30;2.80;;;27.20;83.00;;;;;;5115918;28;20088;-77
2021/06/18 10:51:34;;;;;;;3.00;2.53;;;27.30;83.00;;;;;;5097289;28;20073;-76
2021/06/18 10:54:07;;;;;;;4.18;3.10;;;27.50;82.90;;;;;;5115567;28;20020;-75
2021/06/18 10:56:45;;;;;;;2.92;2.58;;;27.70;82.70;;;;;;5115119;28;20023;-75
2021/06/18 10:59:16;;;;;;;4.28;3.55;;;27.90;82.40;;;;;;5115346;28;20498;-74
2021/06/18 11:01:42;;;;;;;3.45;2.78;;;27.90;82.40;;;;;;5097299;28;20384;-77
2021/06/18 11:04:08;;;;;;;4.53;3.78;;;27.90;82.50;;;;;;5115371;28;20031;-73
2021/06/18 11:06:44;;;;;;;5.15;4.47;;;28.00;82.50;;;;;;5097031;28;20023;-74
2021/06/18 11:09:11;;;;;;;5.30;3.88;;;28.10;82.00;;;;;;5115302;28;20034;-74
2021/06/18 11:11:36;;;;;;;4.32;3.47;;;28.20;82.00;;;;;;5096317;28;20031;-75
2021/06/18 11:14:06;;;;;;;3.63;3.10;;;28.30;82.10;;;;;;5115362;28;20437;-76
2021/06/18 11:16:36;;;;;;;3.00;2.70;;;28.30;81.80;;;;;;5115315;28;20077;-75
2021/06/18 11:19:21;;;;;;;5.10;4.55;;;28.60;81.80;;;;;;5115143;28;20375;-75
2021/06/18 11:21:47;;;;;;;4.97;4.18;;;28.90;81.20;;;;;;5114918;28;20043;-75
2021/06/18 11:24:42;;;;;;;4.25;3.40;;;29.30;80.50;;;;;;5114646;28;20073;-75
2021/06/18 11:27:27;;;;;;;6.03;4.57;;;29.90;79.60;;;;;;5096682;28;20420;-75
2021/06/18 11:30:24;;;;;;;3.72;3.25;;;30.30;78.70;;;;;;5114845;28;20034;-75
2021/06/18 11:32:49;;;;;;;2.75;2.25;;;30.70;78.20;;;;;;5115008;28;20125;-75
2021/06/18 11:35:33;;;;;;;3.22;2.90;;;31.00;77.50;;;;;;5114564;28;20045;-75
2021/06/18 11:38:15;;;;;;;3.08;2.78;;;31.30;77.20;;;;;;5114597;28;20535;-76
2021/06/18 11:40:44;;;;;;;4.00;2.72;;;31.60;77.00;;;;;;5114228;28;20027;-75
2021/06/18 11:43:11;;;;;;;3.58;3.25;;;31.90;76.80;;;;;;5114606;28;20031;-73
2021/06/18 11:45:39;;;;;;;3.63;3.25;;;32.20;76.40;;;;;;5114557;28;20480;-75
2021/06/18 11:48:11;;;;;;;3.10;2.80;;;32.50;76.00;;;;;;5096302;28;20040;-76
2021/06/18 11:50:37;;;;;;;3.03;2.72;;;32.50;76.00;;;;;;5096299;28;20043;-76
2021/06/18 11:53:03;;;;;;;3.10;2.70;;;32.60;76.00;;;;;;5113925;28;20051;-75
2021/06/18 11:55:29;;;;;;;4.07;3.40;;;32.80;75.70;;;;;;5114382;28;20020;-75
2021/06/18 11:57:55;;;;;;;4.50;3.65;;;32.90;75.60;;;;;;5114342;28;20388;-75
2021/06/18 12:00:32;;;;;;;3.05;2.75;;;33.00;75.30;;;;;;5114445;28;20015;-76
2021/06/18 12:02:59;;;;;;;4.07;2.67;;;33.30;75.20;;;;;;5114211;28;20051;-76
2021/06/18 12:05:32;;;;;;;2.85;2.55;;;33.40;74.90;;;;;;5114177;28;20055;-75
2021/06/18 12:07:59;;;;;;;3.22;2.55;;;33.60;74.90;;;;;;5113559;28;20024;-77
2021/06/18 12:10:29;;;;;;;2.80;2.35;;;33.70;74.60;;;;;;5114062;28;20383;-77
2021/06/18 12:12:57;;;;;;;2.53;2.33;;;33.80;74.40;;;;;;5114159;28;20026;-78
2021/06/18 12:15:25;;;;;;;2.45;2.00;;;33.80;74.20;;;;;;5113947;28;20011;-77
2021/06/18 12:17:52;;;;;;;3.42;2.90;;;33.60;74.80;;;;;;5114002;28;20429;-76
2021/06/18 12:20:26;;;;;;;3.00;2.40;;;33.50;75.10;;;;;;5113909;28;20028;-77
2021/06/18 12:22:51;;;;;;;1.80;1.70;;;33.40;75.30;;;;;;5113239;28;20051;-78
2021/06/18 12:25:17;;;;;;;2.53;2.33;;;33.50;75.40;;;;;;5095665;28;20472;-79
2021/06/18 12:27:43;;;;;;;2.58;2.38;;;33.60;75.40;;;;;;5095919;28;20385;-77
2021/06/18 12:30:15;;;;;;;2.78;2.40;;;33.70;75.20;;;;;;5113809;28;20535;-77
2021/06/18 12:32:40;;;;;;;2.92;2.63;;;33.80;74.80;;;;;;5113854;28;20027;-78
2021/06/18 12:35:10;;;;;;;2.53;2.28;;;33.90;74.60;;;;;;5096643;28;20082;-77
2021/06/18 12:37:39;;;;;;;2.40;2.20;;;34.00;74.40;;;;;;5090267;28;20481;-78
2021/06/18 12:40:13;;;;;;;2.47;2.25;;;34.00;74.60;;;;;;5090764;28;20048;-77
2021/06/18 12:42:48;;;;;;;2.05;1.95;;;34.00;74.50;;;;;;5090595;28;20111;-78
2021/06/18 12:45:14;;;;;;;2.40;1.75;;;34.10;74.40;;;;;;5090484;28;20111;-78
2021/06/18 12:47:43;;;;;;;1.75;1.65;;;34.50;73.90;;;;;;5090084;28;20430;-78
2021/06/18 12:50:28;;;;;;;1.75;1.65;;;34.80;73.00;;;;;;5090395;28;20020;-79
2021/06/18 12:52:58;;;;;;;1.77;1.67;;;34.80;72.90;;;;;;5090426;28;20028;-77
2021/06/18 12:55:39;;;;;;;1.60;1.50;;;34.80;72.70;;;;;;5090398;28;20023;-77